sensor_id;sensor_type;location;lat;lon;timestamp;pressure;altitude;pressure_sealevel;temperature;humidity
52343;BME280;38277;51.972;4.624;2023-04-08T00:02:36;102500.0;;;10.7;81.5
52343;BME280;38277;51.972;4.624;2023-04-08T00:08:38;102490.0;;;10.7;81.5
52343;BME280;38277;51.972;4.624;2023-04-08T00:17:41;102490.0;;;10.7;81.5
52343;BME280;38277;51.972;4.624;2023-04-08T00:25:24;102490.0;;;10.6;82.0
52343;BME280;38277;51.972;4.624;2023-04-08T00:28:25;102490.0;;;10.6;82.0
52343;BME280;38277;51.972;4.624;2023-04-08T00:31:26;102490.0;;;10.6;82.5
52343;BME280;38277;51.972;4.624;2023-04-08T00:35:37;102490.0;;;10.6;82.5
52343;BME280;38277;51.972;4.624;2023-04-08T00:40:13;102490.0;;;10.6;82.5
52343;BME280;38277;51.972;4.624;2023-04-08T00:49:21;102500.0;;;10.5;83.0
52343;BME280;38277;51.972;4.624;2023-04-08T00:53:31;102500.0;;;10.6;83.0
52343;BME280;38277;51.972;4.624;2023-04-08T00:57:57;102490.0;;;10.6;83.0
52343;BME280;38277;51.972;4.624;2023-04-08T01:03:10;102500.0;;;10.6;83.0
52343;BME280;38277;51.972;4.624;2023-04-08T01:07:27;102500.0;;;10.5;83.0
52343;BME280;38277;51.972;4.624;2023-04-08T01:11:33;102500.0;;;10.5;83.5
52343;BME280;38277;51.972;4.624;2023-04-08T01:16:15;102510.0;;;10.5;83.5
52343;BME280;38277;51.972;4.624;2023-04-08T01:25:18;102510.0;;;10.6;83.5
52343;BME280;38277;51.972;4.624;2023-04-08T01:29:40;102510.0;;;10.5;84.0
52343;BME280;38277;51.972;4.624;2023-04-08T01:34:24;102510.0;;;10.5;84.0
52343;BME280;38277;51.972;4.624;2023-04-08T01:38:43;102510.0;;;10.5;84.0
52343;BME280;38277;51.972;4.624;2023-04-08T01:42:57;102510.0;;;10.5;84.0
52343;BME280;38277;51.972;4.624;2023-04-08T01:47:52;102510.0;;;10.4;84.0
52343;BME280;38277;51.972;4.624;2023-04-08T01:52:10;102510.0;;;10.3;84.0
52343;BME280;38277;51.972;4.624;2023-04-08T02:01:21;102520.0;;;10.2;84.5
52343;BME280;38277;51.972;4.624;2023-04-08T02:05:28;102510.0;;;10.3;85.0
52343;BME280;38277;51.972;4.624;2023-04-08T02:10:20;102520.0;;;10.3;85.0
52343;BME280;38277;51.972;4.624;2023-04-08T02:14:30;102530.0;;;10.3;85.0
52343;BME280;38277;51.972;4.624;2023-04-08T02:19:19;102520.0;;;10.3;85.0
52343;BME280;38277;51.972;4.624;2023-04-08T02:23:50;102520.0;;;10.3;85.0
52343;BME280;38277;51.972;4.624;2023-04-08T02:28:03;102520.0;;;10.3;85.0
52343;BME280;38277;51.972;4.624;2023-04-08T02:37:01;102520.0;;;10.3;85.5
52343;BME280;38277;51.972;4.624;2023-04-08T02:41:52;102520.0;;;10.3;85.0
52343;BME280;38277;51.972;4.624;2023-04-08T02:46:00;102520.0;;;10.2;85.0
52343;BME280;38277;51.972;4.624;2023-04-08T02:50:52;102540.0;;;10.1;85.0
52343;BME280;38277;51.972;4.624;2023-04-08T02:55:18;102540.0;;;10.1;85.0
52343;BME280;38277;51.972;4.624;2023-04-08T02:59:36;102540.0;;;10.0;85.0
52343;BME280;38277;51.972;4.624;2023-04-08T03:04:07;102540.0;;;10.0;85.0
52343;BME280;38277;51.972;4.624;2023-04-08T03:13:12;102540.0;;;10.0;85.5
52343;BME280;38277;51.972;4.624;2023-04-08T03:17:52;102550.0;;;10.1;85.5
52343;BME280;38277;51.972;4.624;2023-04-08T03:22:07;102540.0;;;10.1;85.5
52343;BME280;38277;51.972;4.624;2023-04-08T03:26:43;102550.0;;;10.1;85.5
52343;BME280;38277;51.972;4.624;2023-04-08T03:31:16;102560.0;;;10.1;85.5
52343;BME280;38277;51.972;4.624;2023-04-08T03:35:31;102560.0;;;10.1;85.5
52343;BME280;38277;51.972;4.624;2023-04-08T03:40:10;102560.0;;;10.1;85.5
52343;BME280;38277;51.972;4.624;2023-04-08T03:49:23;102560.0;;;10.1;85.5
52343;BME280;38277;51.972;4.624;2023-04-08T03:53:44;102570.0;;;10.1;85.5
52343;BME280;38277;51.972;4.624;2023-04-08T03:58:16;102570.0;;;10.1;85.5
52343;BME280;38277;51.972;4.624;2023-04-08T04:11:26;102580.0;;;10.0;85.5
52343;BME280;38277;51.972;4.624;2023-04-08T04:15:56;102590.0;;;10.0;85.5
52343;BME280;38277;51.972;4.624;2023-04-08T04:25:09;102590.0;;;9.9;86.0
52343;BME280;38277;51.972;4.624;2023-04-08T04:29:44;102610.0;;;9.8;86.0
52343;BME280;38277;51.972;4.624;2023-04-08T04:34:14;102610.0;;;9.7;86.0
52343;BME280;38277;51.972;4.624;2023-04-08T04:38:28;102610.0;;;9.6;86.0
52343;BME280;38277;51.972;4.624;2023-04-08T04:43:13;102600.0;;;9.6;86.5
52343;BME280;38277;51.972;4.624;2023-04-08T04:47:49;102610.0;;;9.5;86.5
52343;BME280;38277;51.972;4.624;2023-04-08T04:52:01;102620.0;;;9.5;86.5
52343;BME280;38277;51.972;4.624;2023-04-08T05:00:58;102620.0;;;9.3;86.5
52343;BME280;38277;51.972;4.624;2023-04-08T05:05:41;102640.0;;;9.2;86.5
52343;BME280;38277;51.972;4.624;2023-04-08T05:10:12;102630.0;;;9.1;87.0
52343;BME280;38277;51.972;4.624;2023-04-08T05:14:53;102630.0;;;9.1;87.0
52343;BME280;38277;51.972;4.624;2023-04-08T05:19:23;102630.0;;;9.1;87.0
52343;BME280;38277;51.972;4.624;2023-04-08T05:23:39;102640.0;;;9.0;87.5
52343;BME280;38277;51.972;4.624;2023-04-08T05:27:57;102640.0;;;9.0;87.5
52343;BME280;38277;51.972;4.624;2023-04-08T05:37:22;102650.0;;;9.1;87.5
52343;BME280;38277;51.972;4.624;2023-04-08T05:41:45;102650.0;;;9.1;88.0
52343;BME280;38277;51.972;4.624;2023-04-08T05:46:15;102660.0;;;9.1;88.0
52343;BME280;38277;51.972;4.624;2023-04-08T05:50:42;102670.0;;;9.1;88.0
52343;BME280;38277;51.972;4.624;2023-04-08T05:55:14;102660.0;;;9.1;88.0
52343;BME280;38277;51.972;4.624;2023-04-08T05:59:45;102680.0;;;9.1;88.0
52343;BME280;38277;51.972;4.624;2023-04-08T06:04:11;102680.0;;;9.1;88.0
52343;BME280;38277;51.972;4.624;2023-04-08T06:13:04;102690.0;;;9.1;88.0
52343;BME280;38277;51.972;4.624;2023-04-08T06:17:30;102700.0;;;9.2;88.0
52343;BME280;38277;51.972;4.624;2023-04-08T06:22:10;102700.0;;;9.2;88.0
52343;BME280;38277;51.972;4.624;2023-04-08T06:26:37;102700.0;;;9.1;88.0
52343;BME280;38277;51.972;4.624;2023-04-08T06:31:18;102710.0;;;9.1;88.0
52343;BME280;38277;51.972;4.624;2023-04-08T06:35:33;102710.0;;;9.2;88.5
52343;BME280;38277;51.972;4.624;2023-04-08T06:40:08;102710.0;;;9.2;88.5
52343;BME280;38277;51.972;4.624;2023-04-08T06:48:59;102720.0;;;9.4;88.5
52343;BME280;38277;51.972;4.624;2023-04-08T06:53:43;102730.0;;;9.4;88.5
52343;BME280;38277;51.972;4.624;2023-04-08T06:58:22;102740.0;;;9.5;88.5
52343;BME280;38277;51.972;4.624;2023-04-08T07:02:39;102730.0;;;9.6;88.5
52343;BME280;38277;51.972;4.624;2023-04-08T07:07:15;102740.0;;;9.8;88.5
52343;BME280;38277;51.972;4.624;2023-04-08T07:11:34;102750.0;;;10.0;88.5
52343;BME280;38277;51.972;4.624;2023-04-08T07:16:05;102750.0;;;10.2;88.5
52343;BME280;38277;51.972;4.624;2023-04-08T07:22:07;102750.0;;;10.3;88.0
52343;BME280;38277;51.972;4.624;2023-04-08T07:25:12;102750.0;;;10.3;87.5
52343;BME280;38277;51.972;4.624;2023-04-08T07:29:31;102760.0;;;10.4;87.5
52343;BME280;38277;51.972;4.624;2023-04-08T07:33:56;102760.0;;;10.6;87.5
52343;BME280;38277;51.972;4.624;2023-04-08T07:38:36;102770.0;;;10.7;87.0
52343;BME280;38277;51.972;4.624;2023-04-08T07:43:22;102770.0;;;10.8;87.0
52343;BME280;38277;51.972;4.624;2023-04-08T07:47:51;102770.0;;;10.8;86.5
52343;BME280;38277;51.972;4.624;2023-04-08T07:52:02;102760.0;;;10.9;86.0
52343;BME280;38277;51.972;4.624;2023-04-08T07:56:31;102770.0;;;11.0;85.5
52343;BME280;38277;51.972;4.624;2023-04-08T08:01:13;102770.0;;;11.1;85.5
52343;BME280;38277;51.972;4.624;2023-04-08T08:05:38;102770.0;;;11.2;85.0
52343;BME280;38277;51.972;4.624;2023-04-08T08:10:17;102780.0;;;11.3;84.5
52343;BME280;38277;51.972;4.624;2023-04-08T08:14:32;102780.0;;;11.4;84.5
52343;BME280;38277;51.972;4.624;2023-04-08T08:19:09;102790.0;;;11.6;83.5
52343;BME280;38277;51.972;4.624;2023-04-08T08:23:28;102790.0;;;11.6;83.0
52343;BME280;38277;51.972;4.624;2023-04-08T08:28:10;102790.0;;;11.8;82.5
52343;BME280;38277;51.972;4.624;2023-04-08T08:32:38;102790.0;;;11.9;82.0
52343;BME280;38277;51.972;4.624;2023-04-08T08:37:05;102800.0;;;12.1;81.5
52343;BME280;38277;51.972;4.624;2023-04-08T08:41:53;102790.0;;;12.2;80.5
52343;BME280;38277;51.972;4.624;2023-04-08T08:46:20;102800.0;;;12.2;79.5
52343;BME280;38277;51.972;4.624;2023-04-08T08:50:34;102810.0;;;12.3;78.5
52343;BME280;38277;51.972;4.624;2023-04-08T08:55:19;102810.0;;;12.5;78.5
52343;BME280;38277;51.972;4.624;2023-04-08T08:59:53;102810.0;;;12.8;78.0
52343;BME280;38277;51.972;4.624;2023-04-08T09:04:09;102800.0;;;13.0;77.5
52343;BME280;38277;51.972;4.624;2023-04-08T09:08:54;102810.0;;;13.2;76.5
52343;BME280;38277;51.972;4.624;2023-04-08T09:12:59;102800.0;;;13.4;75.0
52343;BME280;38277;51.972;4.624;2023-04-08T09:22:22;102800.0;;;13.7;73.0
52343;BME280;38277;51.972;4.624;2023-04-08T09:26:31;102810.0;;;13.6;71.0
52343;BME280;38277;51.972;4.624;2023-04-08T09:31:28;102820.0;;;13.4;71.0
52343;BME280;38277;51.972;4.624;2023-04-08T09:35:29;102810.0;;;13.3;71.5
52343;BME280;38277;51.972;4.624;2023-04-08T09:40:08;102810.0;;;13.2;71.5
52343;BME280;38277;51.972;4.624;2023-04-08T09:44:40;102810.0;;;13.0;71.5
52343;BME280;38277;51.972;4.624;2023-04-08T09:49:28;102810.0;;;12.9;71.5
52343;BME280;38277;51.972;4.624;2023-04-08T09:53:37;102820.0;;;12.8;71.5
52343;BME280;38277;51.972;4.624;2023-04-08T09:58:02;102810.0;;;12.7;71.5
52343;BME280;38277;51.972;4.624;2023-04-08T10:03:00;102820.0;;;12.7;71.5
52343;BME280;38277;51.972;4.624;2023-04-08T10:07:08;102820.0;;;12.7;71.5
52343;BME280;38277;51.972;4.624;2023-04-08T10:11:31;102810.0;;;12.6;71.0
52343;BME280;38277;51.972;4.624;2023-04-08T10:16:24;102820.0;;;12.6;71.0
52343;BME280;38277;51.972;4.624;2023-04-08T10:29:43;102820.0;;;13.0;70.0
52343;BME280;38277;51.972;4.624;2023-04-08T10:34:15;102810.0;;;13.1;69.5
52343;BME280;38277;51.972;4.624;2023-04-08T10:38:30;102810.0;;;13.3;69.0
52343;BME280;38277;51.972;4.624;2023-04-08T10:43:12;102810.0;;;13.4;68.0
52343;BME280;38277;51.972;4.624;2023-04-08T10:47:30;102800.0;;;13.6;67.0
52343;BME280;38277;51.972;4.624;2023-04-08T10:52:24;102800.0;;;13.8;66.0
52343;BME280;38277;51.972;4.624;2023-04-08T11:01:18;102800.0;;;14.3;64.5
52343;BME280;38277;51.972;4.624;2023-04-08T11:05:27;102790.0;;;14.6;61.5
52343;BME280;38277;51.972;4.624;2023-04-08T11:10:08;102790.0;;;15.1;58.0
52343;BME280;38277;51.972;4.624;2023-04-08T11:14:29;102790.0;;;17.0;51.5
52343;BME280;38277;51.972;4.624;2023-04-08T11:19:16;102790.0;;;20.1;44.5
52343;BME280;38277;51.972;4.624;2023-04-08T11:23:28;102770.0;;;22.9;37.5
52343;BME280;38277;51.972;4.624;2023-04-08T11:28:18;102780.0;;;25.2;32.5
52343;BME280;38277;51.972;4.624;2023-04-08T11:37:18;102760.0;;;28.1;28.0
52343;BME280;38277;51.972;4.624;2023-04-08T11:41:35;102760.0;;;29.3;25.5
52343;BME280;38277;51.972;4.624;2023-04-08T11:46:09;102750.0;;;30.2;24.0
52343;BME280;38277;51.972;4.624;2023-04-08T11:50:47;102740.0;;;30.8;23.5
52343;BME280;38277;51.972;4.624;2023-04-08T11:54:57;102730.0;;;31.5;22.0
52343;BME280;38277;51.972;4.624;2023-04-08T11:59:37;102740.0;;;32.1;21.0
52343;BME280;38277;51.972;4.624;2023-04-08T12:04:05;102740.0;;;33.0;20.0
52343;BME280;38277;51.972;4.624;2023-04-08T12:13:06;102730.0;;;33.7;17.5
52343;BME280;38277;51.972;4.624;2023-04-08T12:17:33;102720.0;;;33.8;16.0
52343;BME280;38277;51.972;4.624;2023-04-08T12:22:19;102730.0;;;34.0;16.0
52343;BME280;38277;51.972;4.624;2023-04-08T12:31:23;102710.0;;;34.2;16.0
52343;BME280;38277;51.972;4.624;2023-04-08T12:35:34;102730.0;;;34.3;15.0
52343;BME280;38277;51.972;4.624;2023-04-08T12:40:17;102710.0;;;35.1;15.0
52343;BME280;38277;51.972;4.624;2023-04-08T12:49:20;102710.0;;;36.0;14.0
52343;BME280;38277;51.972;4.624;2023-04-08T12:53:45;102710.0;;;36.6;14.5
52343;BME280;38277;51.972;4.624;2023-04-08T12:58:24;102710.0;;;36.8;14.0
52343;BME280;38277;51.972;4.624;2023-04-08T13:02:54;102710.0;;;36.8;14.0
52343;BME280;38277;51.972;4.624;2023-04-08T13:07:12;102700.0;;;36.9;14.0
52343;BME280;38277;51.972;4.624;2023-04-08T13:13:06;102700.0;;;37.1;14.0
52343;BME280;38277;51.972;4.624;2023-04-08T13:16:00;102700.0;;;37.5;13.5
52343;BME280;38277;51.972;4.624;2023-04-08T13:20:47;102700.0;;;37.7;12.5
52343;BME280;38277;51.972;4.624;2023-04-08T13:25:02;102700.0;;;37.3;13.0
52343;BME280;38277;51.972;4.624;2023-04-08T13:31:33;102690.0;;;37.3;13.0
52343;BME280;38277;51.972;4.624;2023-04-08T13:34:14;102700.0;;;37.1;13.0
52343;BME280;38277;51.972;4.624;2023-04-08T13:38:55;102680.0;;;36.6;13.0
52343;BME280;38277;51.972;4.624;2023-04-08T13:43:00;102680.0;;;36.3;13.0
52343;BME280;38277;51.972;4.624;2023-04-08T13:49:07;102680.0;;;36.1;13.0
52343;BME280;38277;51.972;4.624;2023-04-08T13:52:16;102680.0;;;36.0;13.0
52343;BME280;38277;51.972;4.624;2023-04-08T13:56:49;102690.0;;;35.7;13.0
52343;BME280;38277;51.972;4.624;2023-04-08T14:01:03;102680.0;;;35.8;13.0
52343;BME280;38277;51.972;4.624;2023-04-08T14:07:06;102680.0;;;35.3;13.0
52343;BME280;38277;51.972;4.624;2023-04-08T14:09:58;102670.0;;;35.1;13.0
52343;BME280;38277;51.972;4.624;2023-04-08T14:14:30;102680.0;;;35.3;12.5
52343;BME280;38277;51.972;4.624;2023-04-08T14:19:21;102680.0;;;35.5;11.5
52343;BME280;38277;51.972;4.624;2023-04-08T14:25:10;102680.0;;;35.5;12.0
52343;BME280;38277;51.972;4.624;2023-04-08T14:28:07;102660.0;;;35.8;11.5
52343;BME280;38277;51.972;4.624;2023-04-08T14:32:46;102670.0;;;35.6;12.0
52343;BME280;38277;51.972;4.624;2023-04-08T14:37:00;102670.0;;;35.4;12.0
52343;BME280;38277;51.972;4.624;2023-04-08T14:43:27;102670.0;;;35.5;12.5
52343;BME280;38277;51.972;4.624;2023-04-08T14:46:05;102670.0;;;35.2;12.5
52343;BME280;38277;51.972;4.624;2023-04-08T14:50:45;102680.0;;;32.7;14.0
52343;BME280;38277;51.972;4.624;2023-04-08T14:55:18;102680.0;;;29.5;16.5
52343;BME280;38277;51.972;4.624;2023-04-08T15:01:15;102680.0;;;26.8;18.5
52343;BME280;38277;51.972;4.624;2023-04-08T15:04:10;102700.0;;;25.3;20.5
52343;BME280;38277;51.972;4.624;2023-04-08T15:08:44;102700.0;;;23.8;22.0
52343;BME280;38277;51.972;4.624;2023-04-08T15:13:24;102710.0;;;22.5;23.5
52343;BME280;38277;51.972;4.624;2023-04-08T15:19:32;102700.0;;;22.5;24.5
52343;BME280;38277;51.972;4.624;2023-04-08T15:21:59;102700.0;;;23.7;23.0
52343;BME280;38277;51.972;4.624;2023-04-08T15:26:32;102700.0;;;25.2;21.5
52343;BME280;38277;51.972;4.624;2023-04-08T15:31:02;102680.0;;;26.7;19.5
52343;BME280;38277;51.972;4.624;2023-04-08T15:37:10;102680.0;;;27.1;18.5
52343;BME280;38277;51.972;4.624;2023-04-08T15:40:13;102680.0;;;27.6;18.5
52343;BME280;38277;51.972;4.624;2023-04-08T15:44:54;102680.0;;;28.6;18.5
52343;BME280;38277;51.972;4.624;2023-04-08T15:49:05;102680.0;;;29.5;17.5
52343;BME280;38277;51.972;4.624;2023-04-08T15:55:15;102680.0;;;30.0;17.0
52343;BME280;38277;51.972;4.624;2023-04-08T15:58:23;102690.0;;;29.7;16.5
52343;BME280;38277;51.972;4.624;2023-04-08T16:02:27;102680.0;;;29.3;17.0
52343;BME280;38277;51.972;4.624;2023-04-08T16:07:15;102670.0;;;29.0;17.5
52343;BME280;38277;51.972;4.624;2023-04-08T16:13:26;102680.0;;;29.0;17.5
52343;BME280;38277;51.972;4.624;2023-04-08T16:16:20;102670.0;;;28.9;18.0
52343;BME280;38277;51.972;4.624;2023-04-08T16:20:47;102670.0;;;28.5;18.5
52343;BME280;38277;51.972;4.624;2023-04-08T16:25:09;102680.0;;;28.0;19.0
52343;BME280;38277;51.972;4.624;2023-04-08T16:31:17;102690.0;;;27.0;20.0
52343;BME280;38277;51.972;4.624;2023-04-08T16:34:16;102690.0;;;25.6;21.0
52343;BME280;38277;51.972;4.624;2023-04-08T16:38:31;102690.0;;;23.9;23.5
52343;BME280;38277;51.972;4.624;2023-04-08T16:43:23;102700.0;;;22.4;25.0
52343;BME280;38277;51.972;4.624;2023-04-08T16:49:26;102700.0;;;21.1;26.0
52343;BME280;38277;51.972;4.624;2023-04-08T16:52:00;102710.0;;;20.0;28.0
52343;BME280;38277;51.972;4.624;2023-04-08T16:56:27;102710.0;;;19.2;28.5
52343;BME280;38277;51.972;4.624;2023-04-08T17:01:22;102710.0;;;18.4;29.0
52343;BME280;38277;51.972;4.624;2023-04-08T17:07:25;102710.0;;;17.8;29.0
52343;BME280;38277;51.972;4.624;2023-04-08T17:10:06;102710.0;;;17.3;30.0
52343;BME280;38277;51.972;4.624;2023-04-08T17:14:47;102710.0;;;16.9;30.0
52343;BME280;38277;51.972;4.624;2023-04-08T17:19:21;102710.0;;;16.5;29.0
52343;BME280;38277;51.972;4.624;2023-04-08T17:25:23;102720.0;;;16.1;28.5
52343;BME280;38277;51.972;4.624;2023-04-08T17:27:59;102720.0;;;15.8;29.5
52343;BME280;38277;51.972;4.624;2023-04-08T17:32:26;102720.0;;;15.5;30.0
52343;BME280;38277;51.972;4.624;2023-04-08T17:37:24;102720.0;;;15.3;30.5
52343;BME280;38277;51.972;4.624;2023-04-08T17:43:07;102710.0;;;15.1;32.0
52343;BME280;38277;51.972;4.624;2023-04-08T17:46:02;102720.0;;;14.8;33.5
52343;BME280;38277;51.972;4.624;2023-04-08T17:50:31;102730.0;;;14.6;35.0
52343;BME280;38277;51.972;4.624;2023-04-08T17:55:00;102720.0;;;14.4;36.5
52343;BME280;38277;51.972;4.624;2023-04-08T18:01:22;102730.0;;;14.2;38.5
52343;BME280;38277;51.972;4.624;2023-04-08T18:04:02;102730.0;;;14.1;39.5
52343;BME280;38277;51.972;4.624;2023-04-08T18:08:27;102730.0;;;13.9;41.5
52343;BME280;38277;51.972;4.624;2023-04-08T18:14:38;102730.0;;;13.7;42.5
52343;BME280;38277;51.972;4.624;2023-04-08T18:19:33;102740.0;;;13.5;43.5
52343;BME280;38277;51.972;4.624;2023-04-08T18:22:11;102740.0;;;13.3;44.0
52343;BME280;38277;51.972;4.624;2023-04-08T18:28:11;102750.0;;;13.2;44.5
52343;BME280;38277;51.972;4.624;2023-04-08T18:31:13;102750.0;;;13.0;45.5
52343;BME280;38277;51.972;4.624;2023-04-08T18:37:17;102750.0;;;12.9;46.5
52343;BME280;38277;51.972;4.624;2023-04-08T18:40:17;102770.0;;;12.8;47.5
52343;BME280;38277;51.972;4.624;2023-04-08T18:44:26;102770.0;;;12.6;48.5
52343;BME280;38277;51.972;4.624;2023-04-08T18:49:23;102770.0;;;12.5;49.5
52343;BME280;38277;51.972;4.624;2023-04-08T18:55:17;102780.0;;;12.4;51.0
52343;BME280;38277;51.972;4.624;2023-04-08T18:58:13;102780.0;;;12.3;52.5
52343;BME280;38277;51.972;4.624;2023-04-08T19:02:51;102790.0;;;12.2;54.0
52343;BME280;38277;51.972;4.624;2023-04-08T19:07:02;102780.0;;;12.1;55.0
52343;BME280;38277;51.972;4.624;2023-04-08T19:13:27;102790.0;;;12.0;56.0
52343;BME280;38277;51.972;4.624;2023-04-08T19:16:07;102790.0;;;11.9;56.0
52343;BME280;38277;51.972;4.624;2023-04-08T19:20:46;102790.0;;;11.8;56.5
52343;BME280;38277;51.972;4.624;2023-04-08T19:25:19;102790.0;;;11.8;58.0
52343;BME280;38277;51.972;4.624;2023-04-08T19:31:13;102800.0;;;11.7;58.5
52343;BME280;38277;51.972;4.624;2023-04-08T19:34:09;102800.0;;;11.6;59.0
52343;BME280;38277;51.972;4.624;2023-04-08T19:38:50;102800.0;;;11.6;59.5
52343;BME280;38277;51.972;4.624;2023-04-08T19:43:14;102800.0;;;11.5;60.0
52343;BME280;38277;51.972;4.624;2023-04-08T19:49:25;102800.0;;;11.4;60.5
52343;BME280;38277;51.972;4.624;2023-04-08T19:52:17;102800.0;;;11.4;60.5
52343;BME280;38277;51.972;4.624;2023-04-08T19:56:50;102800.0;;;11.3;60.5
52343;BME280;38277;51.972;4.624;2023-04-08T20:01:14;102800.0;;;11.2;61.5
52343;BME280;38277;51.972;4.624;2023-04-08T20:07:10;102810.0;;;11.2;62.0
52343;BME280;38277;51.972;4.624;2023-04-08T20:09:56;102810.0;;;11.1;62.5
52343;BME280;38277;51.972;4.624;2023-04-08T20:14:30;102810.0;;;11.1;63.0
52343;BME280;38277;51.972;4.624;2023-04-08T20:18:58;102830.0;;;11.0;63.5
52343;BME280;38277;51.972;4.624;2023-04-08T20:31:02;102820.0;;;10.9;64.5
52343;BME280;38277;51.972;4.624;2023-04-08T20:37:22;102820.0;;;10.8;65.5
52343;BME280;38277;51.972;4.624;2023-04-08T20:43:24;102830.0;;;10.7;66.0
52343;BME280;38277;51.972;4.624;2023-04-08T20:53:56;102820.0;;;10.6;66.5
52343;BME280;38277;51.972;4.624;2023-04-08T20:56:57;102820.0;;;10.6;66.5
52343;BME280;38277;51.972;4.624;2023-04-08T21:04:16;102820.0;;;10.5;67.0
52343;BME280;38277;51.972;4.624;2023-04-08T21:10:18;102820.0;;;10.5;67.5
52343;BME280;38277;51.972;4.624;2023-04-08T21:20:55;102830.0;;;10.4;67.5
52343;BME280;38277;51.972;4.624;2023-04-08T21:26:57;102820.0;;;10.4;68.0
52343;BME280;38277;51.972;4.624;2023-04-08T21:31:10;102820.0;;;10.3;68.5
52343;BME280;38277;51.972;4.624;2023-04-08T21:37:12;102820.0;;;10.3;69.0
52343;BME280;38277;51.972;4.624;2023-04-08T21:47:33;102810.0;;;10.2;69.5
52343;BME280;38277;51.972;4.624;2023-04-08T21:53:35;102810.0;;;10.2;70.0
52343;BME280;38277;51.972;4.624;2023-04-08T22:01:09;102810.0;;;10.1;70.5
52343;BME280;38277;51.972;4.624;2023-04-08T22:04:10;102810.0;;;10.0;70.5
52343;BME280;38277;51.972;4.624;2023-04-08T22:13:13;102800.0;;;10.0;71.0
52343;BME280;38277;51.972;4.624;2023-04-08T22:16:14;102810.0;;;9.9;71.5
52343;BME280;38277;51.972;4.624;2023-04-08T22:22:16;102810.0;;;9.9;72.0
52343;BME280;38277;51.972;4.624;2023-04-08T22:38:40;102810.0;;;9.8;73.0
52343;BME280;38277;51.972;4.624;2023-04-08T22:42:56;102820.0;;;9.8;73.5
52343;BME280;38277;51.972;4.624;2023-04-08T22:48:59;102810.0;;;9.7;73.5
52343;BME280;38277;51.972;4.624;2023-04-08T22:58:02;102810.0;;;9.7;74.0
52343;BME280;38277;51.972;4.624;2023-04-08T23:04:04;102820.0;;;9.6;74.0
52343;BME280;38277;51.972;4.624;2023-04-08T23:07:05;102810.0;;;9.6;74.5
52343;BME280;38277;51.972;4.624;2023-04-08T23:14:51;102810.0;;;9.6;74.5
52343;BME280;38277;51.972;4.624;2023-04-08T23:20:54;102800.0;;;9.5;75.0
52343;BME280;38277;51.972;4.624;2023-04-08T23:31:26;102790.0;;;9.4;75.0
52343;BME280;38277;51.972;4.624;2023-04-08T23:34:28;102800.0;;;9.4;75.5
52343;BME280;38277;51.972;4.624;2023-04-08T23:41:36;102780.0;;;9.3;76.0
52343;BME280;38277;51.972;4.624;2023-04-08T23:47:38;102780.0;;;9.3;76.5
52343;BME280;38277;51.972;4.624;2023-04-08T23:58:03;102790.0;;;9.3;77.0
